createdAt,value
2019-01-09T00:01:04.405Z,91.60
2019-01-09T00:03:34.088Z,91.60
2019-01-09T00:06:03.555Z,91.50
2019-01-09T00:08:33.079Z,91.30
2019-01-09T00:11:02.640Z,91.50
2019-01-09T00:13:32.507Z,91.20
2019-01-09T00:16:02.422Z,91.30
2019-01-09T00:18:31.951Z,91.30
2019-01-09T00:21:01.440Z,91.40
2019-01-09T00:23:30.890Z,90.80
2019-01-09T00:26:00.366Z,90.80
2019-01-09T00:28:29.825Z,90.40
2019-01-09T00:30:59.358Z,90.50
2019-01-09T00:33:28.917Z,90.90
2019-01-09T00:35:58.451Z,91.40
2019-01-09T00:38:27.943Z,91.50
2019-01-09T00:40:57.602Z,91.60
2019-01-09T00:43:27.050Z,91.50
2019-01-09T00:45:56.684Z,91.50
2019-01-09T00:48:26.612Z,91.50
2019-01-09T00:50:56.632Z,92.10
2019-01-09T00:53:26.662Z,91.90
2019-01-09T00:55:56.803Z,91.70
2019-01-09T00:58:26.409Z,91.70
2019-01-09T01:00:55.964Z,91.60
2019-01-09T01:03:52.582Z,91.60
2019-01-09T01:06:47.468Z,91.20
2019-01-09T01:09:55.249Z,91.20
2019-01-09T01:12:50.410Z,91.10
2019-01-09T01:16:05.152Z,91.10
2019-01-09T01:18:55.478Z,90.90
2019-01-09T01:21:35.044Z,90.90
2019-01-09T01:24:39.366Z,90.90
2019-01-09T01:27:25.564Z,91.00
2019-01-09T01:30:42.475Z,91.10
2019-01-09T01:34:01.813Z,91.20
2019-01-09T01:37:23.409Z,91.50
2019-01-09T01:39:57.591Z,91.50
2019-01-09T01:42:35.708Z,91.50
2019-01-09T01:45:37.232Z,91.40
2019-01-09T01:48:40.713Z,91.40
2019-01-09T01:51:35.339Z,91.20
2019-01-09T01:54:46.928Z,90.90
2019-01-09T01:57:41.767Z,90.80
2019-01-09T02:00:41.488Z,90.90
2019-01-09T02:03:34.623Z,91.30
2019-01-09T02:06:27.301Z,91.70
2019-01-09T02:09:30.347Z,91.90
2019-01-09T02:12:07.116Z,91.80
2019-01-09T02:14:46.977Z,92.10
2019-01-09T02:17:23.937Z,92.30
2019-01-09T02:20:06.808Z,91.90
2019-01-09T02:23:09.274Z,92.00
2019-01-09T02:25:59.897Z,91.80
2019-01-09T02:29:01.310Z,91.80
2019-01-09T02:31:56.513Z,92.30
2019-01-09T02:34:25.961Z,91.90
2019-01-09T02:36:55.553Z,92.10
2019-01-09T02:39:25.562Z,92.10
2019-01-09T02:41:55.375Z,92.00
2019-01-09T02:44:32.229Z,92.00
2019-01-09T02:46:56.049Z,92.10
2019-01-09T02:49:44.842Z,92.20
2019-01-09T02:52:33.602Z,92.00
2019-01-09T02:55:22.375Z,92.10
2019-01-09T02:58:11.148Z,92.10
2019-01-09T03:00:59.960Z,91.70
2019-01-09T03:03:48.760Z,91.90
2019-01-09T03:06:23.201Z,91.80
2019-01-09T03:08:49.485Z,92.00
2019-01-09T03:11:18.960Z,92.00
2019-01-09T03:13:48.740Z,91.90
2019-01-09T03:16:18.656Z,92.20
2019-01-09T03:18:48.132Z,92.90
2019-01-09T03:21:18.510Z,93.50
2019-01-09T03:23:49.022Z,93.80
2019-01-09T03:26:18.507Z,93.90
2019-01-09T03:28:48.008Z,93.80
2019-01-09T03:31:17.466Z,93.90
2019-01-09T03:33:47.713Z,94.10
2019-01-09T03:36:17.203Z,94.10
2019-01-09T03:38:46.694Z,94.00
2019-01-09T03:41:16.201Z,93.90
2019-01-09T03:43:45.697Z,94.10
2019-01-09T03:46:15.168Z,94.30
2019-01-09T03:48:45.100Z,94.40
2019-01-09T03:51:15.041Z,94.70
2019-01-09T03:53:44.826Z,95.00
2019-01-09T03:56:14.744Z,95.20
2019-01-09T03:58:44.307Z,95.40
2019-01-09T04:01:13.944Z,95.40
2019-01-09T04:03:43.422Z,95.40
2019-01-09T04:06:12.935Z,95.00
2019-01-09T04:08:42.434Z,94.70
2019-01-09T04:11:11.984Z,94.50
2019-01-09T04:13:41.437Z,94.60
2019-01-09T04:16:10.908Z,94.80
2019-01-09T04:18:40.348Z,94.60
2019-01-09T04:21:09.845Z,94.50
2019-01-09T04:23:39.298Z,94.50
2019-01-09T04:26:08.781Z,94.60
2019-01-09T04:28:38.627Z,94.50
2019-01-09T04:31:08.542Z,94.30
2019-01-09T04:33:38.019Z,94.10
2019-01-09T04:36:07.483Z,94.10
2019-01-09T04:38:36.920Z,93.90
2019-01-09T04:41:06.373Z,94.00
2019-01-09T04:43:35.884Z,94.10
2019-01-09T04:46:05.327Z,94.10
2019-01-09T04:48:34.805Z,93.60
2019-01-09T04:51:04.262Z,93.60
2019-01-09T04:53:33.812Z,93.50
2019-01-09T04:56:03.285Z,93.60
2019-01-09T04:58:32.793Z,93.70
2019-01-09T05:01:02.237Z,93.90
2019-01-09T05:03:32.339Z,93.80
2019-01-09T05:06:02.236Z,93.90
2019-01-09T05:08:32.051Z,93.80
2019-01-09T05:11:01.875Z,93.60
2019-01-09T05:13:31.391Z,93.50
2019-01-09T05:16:00.919Z,93.90
2019-01-09T05:18:30.396Z,93.70
2019-01-09T05:20:59.852Z,93.60
2019-01-09T05:23:29.366Z,94.10
2019-01-09T05:25:58.808Z,93.50
2019-01-09T05:28:28.325Z,93.50
2019-01-09T05:31:07.072Z,93.60
2019-01-09T05:33:28.987Z,93.60
2019-01-09T05:35:58.417Z,93.50
2019-01-09T05:38:28.297Z,93.70
2019-01-09T05:40:57.718Z,93.50
2019-01-09T05:43:27.690Z,93.50
2019-01-09T05:45:57.523Z,93.40
2019-01-09T05:48:26.987Z,93.30
2019-01-09T05:50:56.489Z,93.40
2019-01-09T05:53:25.977Z,93.40
2019-01-09T05:55:55.415Z,93.40
2019-01-09T05:58:24.885Z,93.60
2019-01-09T06:00:54.388Z,93.30
2019-01-09T06:03:23.912Z,93.50
2019-01-09T06:05:53.350Z,93.20
2019-01-09T06:08:22.882Z,93.30
2019-01-09T06:10:52.343Z,93.20
2019-01-09T06:13:21.823Z,93.30
2019-01-09T06:15:51.254Z,93.20
2019-01-09T06:18:21.189Z,93.20
2019-01-09T06:20:50.698Z,93.10
2019-01-09T06:23:20.162Z,93.10
2019-01-09T06:25:49.673Z,93.10
2019-01-09T06:28:19.117Z,93.10
2019-01-09T06:30:48.611Z,92.90
2019-01-09T06:33:18.089Z,92.70
2019-01-09T06:35:47.529Z,92.80
2019-01-09T06:38:17.016Z,93.00
2019-01-09T06:40:46.476Z,92.70
2019-01-09T06:43:15.962Z,92.60
2019-01-09T06:45:45.444Z,92.40
2019-01-09T06:48:15.107Z,91.90
2019-01-09T06:50:45.182Z,91.90
2019-01-09T06:53:15.352Z,92.30
2019-01-09T06:55:45.425Z,91.70
2019-01-09T06:58:14.901Z,91.80
2019-01-09T07:00:44.361Z,91.90
2019-01-09T07:03:13.888Z,91.90
2019-01-09T07:05:43.327Z,92.10
2019-01-09T07:08:12.796Z,92.00
2019-01-09T07:10:42.300Z,92.20
2019-01-09T07:13:11.764Z,92.60
2019-01-09T07:15:41.757Z,92.90
2019-01-09T07:18:11.364Z,93.00
2019-01-09T07:20:40.801Z,92.90
2019-01-09T07:23:10.511Z,92.90
2019-01-09T07:25:39.926Z,93.00
2019-01-09T07:28:10.002Z,93.20
2019-01-09T07:30:40.230Z,93.40
2019-01-09T07:33:10.267Z,93.50
2019-01-09T07:35:40.164Z,93.60
2019-01-09T07:38:09.634Z,93.20
2019-01-09T07:40:39.095Z,93.20
2019-01-09T07:43:08.643Z,93.10
2019-01-09T07:45:38.122Z,92.60
2019-01-09T07:48:07.702Z,92.40
2019-01-09T07:50:37.167Z,91.80
2019-01-09T07:53:06.648Z,91.70
2019-01-09T07:55:44.948Z,91.90
2019-01-09T07:58:14.367Z,91.80
2019-01-09T08:00:43.870Z,91.50
2019-01-09T08:03:13.402Z,91.60
2019-01-09T08:05:44.258Z,91.60
2019-01-09T08:08:14.181Z,91.50
2019-01-09T08:10:43.673Z,91.50
2019-01-09T08:13:13.122Z,91.00
2019-01-09T08:15:42.641Z,91.10
2019-01-09T08:18:12.099Z,91.60
2019-01-09T08:20:41.604Z,91.70
2019-01-09T08:23:11.108Z,91.90
2019-01-09T08:25:40.550Z,92.10
2019-01-09T08:28:10.003Z,92.10
2019-01-09T08:30:39.566Z,92.10
2019-01-09T08:33:09.091Z,92.00
2019-01-09T08:35:38.593Z,92.40
2019-01-09T08:38:08.063Z,92.80
2019-01-09T08:40:37.876Z,92.90
2019-01-09T08:43:08.001Z,92.80
2019-01-09T08:45:37.894Z,92.40
2019-01-09T08:48:07.358Z,92.00
2019-01-09T08:50:36.892Z,91.20
2019-01-09T08:53:06.407Z,90.80
2019-01-09T08:55:35.856Z,90.30
2019-01-09T08:58:05.414Z,90.30
2019-01-09T09:00:34.919Z,90.20
2019-01-09T09:03:04.401Z,90.10
2019-01-09T09:05:33.825Z,90.50
2019-01-09T09:08:11.770Z,90.70
2019-01-09T09:10:35.193Z,90.90
2019-01-09T09:13:04.705Z,91.10
2019-01-09T09:15:36.127Z,91.00
2019-01-09T09:18:06.081Z,90.80
2019-01-09T09:20:36.210Z,91.10
2019-01-09T09:23:06.235Z,91.00
2019-01-09T09:25:36.133Z,91.20
2019-01-09T09:28:05.530Z,91.50
2019-01-09T09:30:35.005Z,91.70
2019-01-09T09:33:04.525Z,91.10
2019-01-09T09:35:34.019Z,91.10
2019-01-09T09:38:03.543Z,91.10
2019-01-09T09:40:32.988Z,91.30
2019-01-09T09:43:02.451Z,91.50
2019-01-09T09:45:31.905Z,91.30
2019-01-09T09:48:01.395Z,91.50
2019-01-09T09:50:30.830Z,91.40
2019-01-09T09:53:00.277Z,91.30
2019-01-09T09:55:29.750Z,91.10
2019-01-09T09:58:05.625Z,91.00
2019-01-09T10:00:31.272Z,90.90
2019-01-09T10:03:00.770Z,90.60
2019-01-09T10:05:30.991Z,90.80
2019-01-09T10:08:00.629Z,91.00
2019-01-09T10:10:30.107Z,90.80
2019-01-09T10:12:59.539Z,90.90
2019-01-09T10:15:29.013Z,90.90
2019-01-09T10:17:58.458Z,91.10
2019-01-09T10:20:27.911Z,90.90
2019-01-09T10:22:57.401Z,91.10
2019-01-09T10:25:26.861Z,91.30
2019-01-09T10:27:56.314Z,91.40
2019-01-09T10:30:25.805Z,91.30
2019-01-09T10:32:55.553Z,91.20
2019-01-09T10:35:25.489Z,91.40
2019-01-09T10:37:55.385Z,91.40
2019-01-09T10:40:25.300Z,91.30
2019-01-09T10:42:54.817Z,91.20
2019-01-09T10:45:24.350Z,91.20
2019-01-09T10:47:53.906Z,91.40
2019-01-09T10:50:23.473Z,91.20
2019-01-09T10:52:52.952Z,91.20
2019-01-09T10:55:22.405Z,91.40
2019-01-09T10:57:52.069Z,91.30
2019-01-09T11:00:26.549Z,91.40
2019-01-09T11:02:56.331Z,91.30
2019-01-09T11:05:26.019Z,91.30
2019-01-09T11:07:55.601Z,91.30
2019-01-09T11:10:25.064Z,91.30
2019-01-09T11:12:54.930Z,91.20
2019-01-09T11:15:24.836Z,91.10
2019-01-09T11:17:54.331Z,91.10
2019-01-09T11:20:23.858Z,91.30
2019-01-09T11:22:53.313Z,91.40
2019-01-09T11:25:27.171Z,91.50
2019-01-09T11:27:56.659Z,91.60
2019-01-09T11:30:26.232Z,91.90
2019-01-09T11:32:55.669Z,91.50
2019-01-09T11:35:25.726Z,91.40
2019-01-09T11:37:55.308Z,91.50
2019-01-09T11:40:24.826Z,91.80
2019-01-09T11:42:54.336Z,91.80
2019-01-09T11:45:23.996Z,91.40
2019-01-09T11:47:54.018Z,91.10
2019-01-09T11:50:23.957Z,91.30
2019-01-09T11:52:53.445Z,91.20
2019-01-09T11:55:22.967Z,91.10
2019-01-09T11:57:52.469Z,91.10
2019-01-09T12:00:25.803Z,91.00
2019-01-09T12:02:55.619Z,91.00
2019-01-09T12:05:25.147Z,91.00
2019-01-09T12:07:54.911Z,91.00
2019-01-09T12:10:30.329Z,91.20
2019-01-09T12:12:57.420Z,91.30
2019-01-09T12:15:26.853Z,91.10
2019-01-09T12:17:56.359Z,91.10
2019-01-09T12:20:25.921Z,91.00
2019-01-09T12:22:55.421Z,91.20
2019-01-09T12:25:24.907Z,91.10
2019-01-09T12:27:54.375Z,90.80
2019-01-09T12:30:27.228Z,90.80
2019-01-09T12:32:56.731Z,90.80
2019-01-09T12:35:26.244Z,90.50
2019-01-09T12:37:55.744Z,90.40
2019-01-09T12:40:25.182Z,90.50
2019-01-09T12:42:54.676Z,90.40
2019-01-09T12:45:24.225Z,90.20
2019-01-09T12:47:53.712Z,90.20
2019-01-09T12:50:25.161Z,90.50
2019-01-09T12:52:55.012Z,90.20
2019-01-09T12:55:24.826Z,90.20
2019-01-09T12:57:54.946Z,90.20
2019-01-09T13:00:28.242Z,90.20
2019-01-09T13:02:57.814Z,90.20
2019-01-09T13:05:27.379Z,90.20
2019-01-09T13:07:56.856Z,90.10
2019-01-09T13:10:26.447Z,90.00
2019-01-09T13:12:55.989Z,89.30
2019-01-09T13:15:25.491Z,89.40
2019-01-09T13:17:57.430Z,89.90
2019-01-09T13:20:26.930Z,89.00
2019-01-09T13:22:56.416Z,89.10
2019-01-09T13:25:25.894Z,88.60
2019-01-09T13:27:55.386Z,89.20
2019-01-09T13:30:25.055Z,90.00
2019-01-09T13:32:54.993Z,89.60
2019-01-09T13:35:24.802Z,89.80
2019-01-09T13:37:54.414Z,90.10
2019-01-09T13:40:23.895Z,90.20
2019-01-09T13:42:53.356Z,89.40
2019-01-09T13:45:23.035Z,89.80
2019-01-09T13:47:53.221Z,90.20
2019-01-09T13:50:22.841Z,90.50
2019-01-09T13:52:52.398Z,90.60
2019-01-09T13:55:21.920Z,90.60
2019-01-09T13:57:51.415Z,90.40
2019-01-09T14:00:22.580Z,90.50
2019-01-09T14:02:52.335Z,90.50
2019-01-09T14:05:21.925Z,90.70
2019-01-09T14:07:51.757Z,90.70
2019-01-09T14:10:24.749Z,90.80
2019-01-09T14:12:55.199Z,90.80
2019-01-09T14:15:24.804Z,90.60
2019-01-09T14:17:54.271Z,90.50
2019-01-09T14:20:23.893Z,90.60
2019-01-09T14:22:53.492Z,90.80
2019-01-09T14:25:22.961Z,90.70
2019-01-09T14:27:52.437Z,90.60
2019-01-09T14:30:25.186Z,90.80
2019-01-09T14:32:54.740Z,90.80
2019-01-09T14:35:24.196Z,91.00
2019-01-09T14:37:53.710Z,90.90
2019-01-09T14:40:23.303Z,90.90
2019-01-09T14:42:53.235Z,90.90
2019-01-09T14:45:23.150Z,90.80
2019-01-09T14:47:52.716Z,91.20
2019-01-09T14:50:24.559Z,91.20
2019-01-09T14:52:54.160Z,91.00
2019-01-09T14:55:23.735Z,90.90
2019-01-09T14:57:53.377Z,90.80
2019-01-09T15:00:25.969Z,91.00
2019-01-09T15:02:55.527Z,91.10
2019-01-09T15:05:25.030Z,91.10
2019-01-09T15:07:54.557Z,90.90
2019-01-09T15:10:28.807Z,90.50
2019-01-09T15:12:59.029Z,90.70
2019-01-09T15:15:28.607Z,90.80
2019-01-09T15:17:58.706Z,90.80
2019-01-09T15:20:28.333Z,90.60
2019-01-09T15:22:57.850Z,90.60
2019-01-09T15:25:27.295Z,90.60
2019-01-09T15:27:56.850Z,90.80
2019-01-09T15:30:29.514Z,90.50
2019-01-09T15:32:59.069Z,90.50
2019-01-09T15:35:28.847Z,90.60
2019-01-09T15:37:58.353Z,90.70
2019-01-09T15:40:30.299Z,90.70
2019-01-09T15:43:00.184Z,90.80
2019-01-09T15:45:29.731Z,90.80
2019-01-09T15:47:59.315Z,90.80
2019-01-09T15:50:29.588Z,90.90
2019-01-09T15:52:59.590Z,90.90
2019-01-09T15:55:29.155Z,90.90
2019-01-09T15:57:59.050Z,90.80
2019-01-09T16:00:33.135Z,90.80
2019-01-09T16:03:03.298Z,90.70
2019-01-09T16:05:32.767Z,90.50
2019-01-09T16:08:02.398Z,90.60
2019-01-09T16:10:31.964Z,90.70
2019-01-09T16:13:01.453Z,90.80
2019-01-09T16:15:30.907Z,90.80
2019-01-09T16:18:01.171Z,90.80
2019-01-09T16:20:30.694Z,91.00
2019-01-09T16:23:00.313Z,90.90
2019-01-09T16:25:30.131Z,91.00
2019-01-09T16:28:00.128Z,91.20
2019-01-09T16:30:40.282Z,91.20
2019-01-09T16:33:09.798Z,91.40
2019-01-09T16:35:39.482Z,91.60
2019-01-09T16:38:09.099Z,91.70
2019-01-09T16:40:38.594Z,91.60
2019-01-09T16:43:08.088Z,91.30
2019-01-09T16:45:37.706Z,91.60
2019-01-09T16:48:07.149Z,91.50
2019-01-09T16:50:36.648Z,91.60
2019-01-09T16:53:06.156Z,92.00
2019-01-09T16:55:35.624Z,91.80
2019-01-09T16:58:05.666Z,91.70
2019-01-09T17:00:41.710Z,91.60
2019-01-09T17:03:11.642Z,91.50
2019-01-09T17:05:41.576Z,91.40
2019-01-09T17:08:11.586Z,91.50
2019-01-09T17:10:41.592Z,91.20
2019-01-09T17:13:11.164Z,91.30
2019-01-09T17:15:40.695Z,91.50
2019-01-09T17:18:10.180Z,91.50
2019-01-09T17:20:39.731Z,91.50
2019-01-09T17:23:09.231Z,91.50
2019-01-09T17:25:58.109Z,91.40
2019-01-09T17:28:46.997Z,91.70
2019-01-09T17:31:35.801Z,91.70
2019-01-09T17:34:17.931Z,91.70
2019-01-09T17:37:06.867Z,91.90
2019-01-09T17:39:55.709Z,92.00
2019-01-09T17:42:44.513Z,91.80
2019-01-09T17:45:33.388Z,91.80
2019-01-09T17:48:02.874Z,91.70
2019-01-09T17:50:52.149Z,91.80
2019-01-09T17:53:22.031Z,92.40
2019-01-09T17:56:10.876Z,94.00
2019-01-09T17:58:59.703Z,92.90
2019-01-09T18:01:29.301Z,91.30
2019-01-09T18:04:18.248Z,90.90
2019-01-09T18:06:47.796Z,90.70
2019-01-09T18:09:17.319Z,90.90
2019-01-09T18:11:46.770Z,91.20
2019-01-09T18:14:17.923Z,91.10
2019-01-09T18:17:06.708Z,91.20
2019-01-09T18:19:36.294Z,91.30
2019-01-09T18:22:07.526Z,91.30
2019-01-09T18:24:56.414Z,91.40
2019-01-09T18:27:45.251Z,91.40
2019-01-09T18:31:03.315Z,91.30
2019-01-09T18:34:06.469Z,91.70
2019-01-09T18:37:37.952Z,91.90
2019-01-09T18:40:49.366Z,91.80
2019-01-09T18:43:59.135Z,91.60
2019-01-09T18:47:26.585Z,91.60
2019-01-09T18:50:54.082Z,92.20
2019-01-09T18:53:42.909Z,91.80
2019-01-09T18:56:31.729Z,91.80
2019-01-09T18:59:20.478Z,91.90
2019-01-09T19:01:49.977Z,91.90
2019-01-09T19:04:40.118Z,92.00
2019-01-09T19:07:29.280Z,92.00
2019-01-09T19:10:39.123Z,91.80
2019-01-09T19:13:27.862Z,91.70
2019-01-09T19:16:16.925Z,91.70
2019-01-09T19:19:05.824Z,91.60
2019-01-09T19:21:54.708Z,91.60
2019-01-09T19:27:18.576Z,91.60
2019-01-09T19:30:00.376Z,91.80
2019-01-09T19:32:49.355Z,91.70
2019-01-09T19:35:19.212Z,91.60
2019-01-09T19:38:08.170Z,91.80
2019-01-09T19:40:57.095Z,92.00
2019-01-09T19:43:46.037Z,91.70
2019-01-09T19:46:34.968Z,91.80
2019-01-09T19:49:42.973Z,92.00
2019-01-09T19:52:31.863Z,91.70
2019-01-09T19:55:01.424Z,91.80
2019-01-09T19:57:50.552Z,92.00
2019-01-09T20:03:19.382Z,92.10
2019-01-09T20:05:49.052Z,92.20
2019-01-09T20:08:57.213Z,92.20
2019-01-09T20:11:46.057Z,92.10
2019-01-09T20:14:34.920Z,92.10
2019-01-09T20:17:23.821Z,92.00
2019-01-09T20:20:33.760Z,92.10
2019-01-09T20:23:22.619Z,92.00
2019-01-09T20:26:11.469Z,92.10
2019-01-09T20:29:00.362Z,92.00
2019-01-09T20:31:29.959Z,92.00
2019-01-09T20:34:18.937Z,92.00
2019-01-09T20:37:07.874Z,92.10
2019-01-09T20:39:57.015Z,92.00
2019-01-09T20:42:46.134Z,92.20
2019-01-09T20:45:34.998Z,92.10
2019-01-09T20:48:23.867Z,92.00
2019-01-09T20:51:12.768Z,92.20
2019-01-09T20:54:01.719Z,92.10
2019-01-09T20:56:50.684Z,92.30
2019-01-09T20:59:39.611Z,92.20
2019-01-09T21:02:28.497Z,92.20
2019-01-09T21:08:47.685Z,92.30
2019-01-09T21:11:44.162Z,96.30
2019-01-09T21:14:27.208Z,93.40
2019-01-09T21:17:15.988Z,91.10
2019-01-09T21:20:25.732Z,91.40
2019-01-09T21:23:07.934Z,92.10
2019-01-09T21:25:56.778Z,91.50
2019-01-09T21:28:45.634Z,92.10
2019-01-09T21:31:34.461Z,92.40
2019-01-09T21:34:23.376Z,92.30
2019-01-09T21:37:12.203Z,91.90
2019-01-09T21:40:01.125Z,91.80
2019-01-09T21:42:50.113Z,92.00
2019-01-09T21:45:39.094Z,92.30
2019-01-09T21:57:00.972Z,92.40
2019-01-09T21:59:50.038Z,92.50
2019-01-09T22:02:31.183Z,92.40
2019-01-09T22:08:35.687Z,92.60
2019-01-09T22:14:18.470Z,92.50
2019-01-09T22:17:07.241Z,92.30
2019-01-09T22:19:56.031Z,92.40
2019-01-09T22:22:44.865Z,92.80
2019-01-09T22:25:33.640Z,92.90
2019-01-09T22:28:22.447Z,92.70
2019-01-09T22:31:11.244Z,92.60
2019-01-09T22:34:00.014Z,92.50
2019-01-09T22:36:48.860Z,92.50
2019-01-09T22:39:37.624Z,92.50
2019-01-09T22:42:26.401Z,92.60
2019-01-09T22:48:44.067Z,92.50
2019-01-09T22:51:32.853Z,92.50
2019-01-09T22:54:21.606Z,92.60
2019-01-09T22:57:10.424Z,92.30
2019-01-09T22:59:59.187Z,92.50
2019-01-09T23:02:41.162Z,92.50
2019-01-09T23:08:39.454Z,92.50
2019-01-09T23:11:28.348Z,92.30
2019-01-09T23:13:57.783Z,92.20
2019-01-09T23:16:27.293Z,92.60
2019-01-09T23:19:16.155Z,92.20
2019-01-09T23:21:45.584Z,92.40
2019-01-09T23:24:15.159Z,92.50
2019-01-09T23:26:44.674Z,92.50
2019-01-09T23:29:14.138Z,92.40
2019-01-09T23:31:44.098Z,92.10
2019-01-09T23:34:13.708Z,92.20
2019-01-09T23:36:43.191Z,92.30
2019-01-09T23:39:15.671Z,92.10
2019-01-09T23:41:45.270Z,92.20
2019-01-09T23:44:14.843Z,92.30
2019-01-09T23:46:44.462Z,92.30
2019-01-09T23:49:13.958Z,92.20
2019-01-09T23:51:43.748Z,92.20
2019-01-09T23:54:13.288Z,92.00
2019-01-09T23:56:42.822Z,92.20
2019-01-09T23:59:13.810Z,92.30
